sensor_id;sensor_type;location;lat;lon;timestamp;pressure;altitude;pressure_sealevel;temperature;humidity
63556;BME280;49700;48.072;7.800;2023-06-26T00:01:30;99406.09;;;22.95;51.94
63556;BME280;49700;48.072;7.800;2023-06-26T00:03:57;99403.41;;;22.95;51.68
63556;BME280;49700;48.072;7.800;2023-06-26T00:06:24;99410.09;;;22.99;52.52
63556;BME280;49700;48.072;7.800;2023-06-26T00:08:51;99410.47;;;22.96;52.34
63556;BME280;49700;48.072;7.800;2023-06-26T00:11:18;99409.69;;;22.87;52.71
63556;BME280;49700;48.072;7.800;2023-06-26T00:13:43;99418.44;;;22.81;52.62
63556;BME280;49700;48.072;7.800;2023-06-26T00:16:09;99420.88;;;22.68;53.16
63556;BME280;49700;48.072;7.800;2023-06-26T00:18:34;99426.56;;;22.50;53.38
63556;BME280;49700;48.072;7.800;2023-06-26T00:20:59;99415.63;;;22.37;53.90
63556;BME280;49700;48.072;7.800;2023-06-26T00:23:25;99424.38;;;22.30;54.18
63556;BME280;49700;48.072;7.800;2023-06-26T00:25:50;99421.41;;;22.25;54.27
63556;BME280;49700;48.072;7.800;2023-06-26T00:28:15;99420.75;;;22.15;54.50
63556;BME280;49700;48.072;7.800;2023-06-26T00:30:41;99423.34;;;22.00;54.82
63556;BME280;49700;48.072;7.800;2023-06-26T00:33:06;99424.22;;;21.93;55.09
63556;BME280;49700;48.072;7.800;2023-06-26T00:35:32;99426.88;;;21.93;54.82
63556;BME280;49700;48.072;7.800;2023-06-26T00:37:57;99421.38;;;21.94;54.88
63556;BME280;49700;48.072;7.800;2023-06-26T00:40:22;99420.19;;;21.97;54.72
63556;BME280;49700;48.072;7.800;2023-06-26T00:42:48;99423.34;;;22.00;54.82
63556;BME280;49700;48.072;7.800;2023-06-26T00:45:13;99429.53;;;22.01;55.02
63556;BME280;49700;48.072;7.800;2023-06-26T00:47:39;99421.84;;;21.98;55.10
63556;BME280;49700;48.072;7.800;2023-06-26T00:50:05;99428.22;;;21.97;55.21
63556;BME280;49700;48.072;7.800;2023-06-26T00:52:31;99429.22;;;21.96;55.10
63556;BME280;49700;48.072;7.800;2023-06-26T00:54:58;99427.06;;;21.91;55.23
63556;BME280;49700;48.072;7.800;2023-06-26T00:57:24;99431.44;;;21.84;55.46
63556;BME280;49700;48.072;7.800;2023-06-26T00:59:50;99430.81;;;21.82;55.61
63556;BME280;49700;48.072;7.800;2023-06-26T01:02:15;99430.31;;;21.78;55.58
63556;BME280;49700;48.072;7.800;2023-06-26T01:04:52;99430.50;;;21.77;55.44
63556;BME280;49700;48.072;7.800;2023-06-26T01:07:18;99428.16;;;21.74;55.18
63556;BME280;49700;48.072;7.800;2023-06-26T01:09:48;99425.47;;;21.74;55.12
63556;BME280;49700;48.072;7.800;2023-06-26T01:12:14;99424.47;;;21.75;55.17
63556;BME280;49700;48.072;7.800;2023-06-26T01:14:40;99419.13;;;21.75;54.98
63556;BME280;49700;48.072;7.800;2023-06-26T01:17:06;99415.78;;;21.73;54.84
63556;BME280;49700;48.072;7.800;2023-06-26T01:19:33;99426.38;;;21.66;55.21
63556;BME280;49700;48.072;7.800;2023-06-26T01:22:08;99414.84;;;21.57;55.08
63556;BME280;49700;48.072;7.800;2023-06-26T01:24:45;99416.06;;;21.47;55.71
63556;BME280;49700;48.072;7.800;2023-06-26T01:27:18;99405.09;;;21.41;55.74
63556;BME280;49700;48.072;7.800;2023-06-26T01:29:49;99414.28;;;21.39;55.85
63556;BME280;49700;48.072;7.800;2023-06-26T01:32:15;99405.72;;;21.35;56.07
63556;BME280;49700;48.072;7.800;2023-06-26T01:34:41;99403.22;;;21.34;56.23
63556;BME280;49700;48.072;7.800;2023-06-26T01:37:07;99397.25;;;21.24;56.74
63556;BME280;49700;48.072;7.800;2023-06-26T01:39:32;99398.44;;;21.13;57.08
63556;BME280;49700;48.072;7.800;2023-06-26T01:41:58;99401.81;;;21.07;57.17
63556;BME280;49700;48.072;7.800;2023-06-26T01:44:29;99400.13;;;21.06;57.04
63556;BME280;49700;48.072;7.800;2023-06-26T01:54:33;99393.28;;;20.95;57.20
63556;BME280;49700;48.072;7.800;2023-06-26T01:57:04;99390.13;;;20.91;57.18
63556;BME280;49700;48.072;7.800;2023-06-26T01:59:31;99396.81;;;20.87;57.15
63556;BME280;49700;48.072;7.800;2023-06-26T02:01:57;99399.19;;;20.82;57.06
63556;BME280;49700;48.072;7.800;2023-06-26T02:04:23;99401.66;;;20.84;57.10
63556;BME280;49700;48.072;7.800;2023-06-26T02:06:48;99404.19;;;20.85;56.95
63556;BME280;49700;48.072;7.800;2023-06-26T02:09:13;99401.31;;;20.87;56.93
63556;BME280;49700;48.072;7.800;2023-06-26T02:11:39;99401.84;;;20.90;57.00
63556;BME280;49700;48.072;7.800;2023-06-26T02:14:04;99404.31;;;20.92;56.51
63556;BME280;49700;48.072;7.800;2023-06-26T02:16:30;99410.19;;;20.95;56.51
63556;BME280;49700;48.072;7.800;2023-06-26T02:18:55;99408.50;;;20.94;56.37
63556;BME280;49700;48.072;7.800;2023-06-26T02:21:22;99411.16;;;20.94;56.44
63556;BME280;49700;48.072;7.800;2023-06-26T02:23:48;99403.16;;;20.94;56.22
63556;BME280;49700;48.072;7.800;2023-06-26T02:26:13;99397.81;;;20.94;56.42
63556;BME280;49700;48.072;7.800;2023-06-26T02:28:41;99407.50;;;20.95;56.33
63556;BME280;49700;48.072;7.800;2023-06-26T02:31:06;99401.16;;;20.96;56.25
63556;BME280;49700;48.072;7.800;2023-06-26T02:33:32;99403.63;;;20.98;56.46
63556;BME280;49700;48.072;7.800;2023-06-26T02:35:57;99408.16;;;20.97;56.28
63556;BME280;49700;48.072;7.800;2023-06-26T02:38:23;99408.50;;;20.94;56.36
63556;BME280;49700;48.072;7.800;2023-06-26T02:40:48;99405.69;;;20.88;56.64
63556;BME280;49700;48.072;7.800;2023-06-26T02:43:15;99414.84;;;20.85;56.71
63556;BME280;49700;48.072;7.800;2023-06-26T02:45:41;99403.50;;;20.83;56.54
63556;BME280;49700;48.072;7.800;2023-06-26T02:48:06;99400.34;;;20.80;56.53
63556;BME280;49700;48.072;7.800;2023-06-26T02:50:32;99405.00;;;20.77;56.54
63556;BME280;49700;48.072;7.800;2023-06-26T02:53:12;99405.16;;;20.76;56.48
63556;BME280;49700;48.072;7.800;2023-06-26T02:55:40;99402.84;;;20.73;56.44
63556;BME280;49700;48.072;7.800;2023-06-26T02:58:05;99404.34;;;20.67;56.44
63556;BME280;49700;48.072;7.800;2023-06-26T03:00:32;99400.19;;;20.57;56.61
63556;BME280;49700;48.072;7.800;2023-06-26T03:03:03;99407.13;;;20.49;56.67
63556;BME280;49700;48.072;7.800;2023-06-26T03:05:29;99407.31;;;20.48;57.07
63556;BME280;49700;48.072;7.800;2023-06-26T03:07:55;99413.50;;;20.48;56.99
63556;BME280;49700;48.072;7.800;2023-06-26T03:10:20;99408.50;;;20.45;56.99
63556;BME280;49700;48.072;7.800;2023-06-26T03:12:46;99402.47;;;20.43;57.20
63556;BME280;49700;48.072;7.800;2023-06-26T03:15:12;99409.81;;;20.41;57.16
63556;BME280;49700;48.072;7.800;2023-06-26T03:17:38;99416.97;;;20.41;57.16
63556;BME280;49700;48.072;7.800;2023-06-26T03:20:07;99420.66;;;20.40;57.17
63556;BME280;49700;48.072;7.800;2023-06-26T03:22:42;99427.16;;;20.37;57.33
63556;BME280;49700;48.072;7.800;2023-06-26T03:25:07;99426.47;;;20.35;57.37
63556;BME280;49700;48.072;7.800;2023-06-26T03:27:33;99421.16;;;20.35;57.30
63556;BME280;49700;48.072;7.800;2023-06-26T03:29:59;99422.16;;;20.34;57.53
63556;BME280;49700;48.072;7.800;2023-06-26T03:32:25;99435.50;;;20.34;57.48
63556;BME280;49700;48.072;7.800;2023-06-26T03:34:51;99435.50;;;20.34;57.63
63556;BME280;49700;48.072;7.800;2023-06-26T03:37:18;99424.81;;;20.34;57.56
63556;BME280;49700;48.072;7.800;2023-06-26T03:39:44;99431.31;;;20.31;57.57
63556;BME280;49700;48.072;7.800;2023-06-26T03:42:09;99430.97;;;20.26;57.53
63556;BME280;49700;48.072;7.800;2023-06-26T03:44:35;99424.47;;;20.21;57.80
63556;BME280;49700;48.072;7.800;2023-06-26T03:47:00;99424.44;;;20.13;58.01
63556;BME280;49700;48.072;7.800;2023-06-26T03:49:26;99430.44;;;20.06;57.99
63556;BME280;49700;48.072;7.800;2023-06-26T03:51:52;99435.09;;;20.04;58.30
63556;BME280;49700;48.072;7.800;2023-06-26T03:54:17;99429.75;;;20.04;58.32
63556;BME280;49700;48.072;7.800;2023-06-26T03:56:43;99429.59;;;20.06;57.93
63556;BME280;49700;48.072;7.800;2023-06-26T03:59:09;99429.22;;;20.01;58.15
63556;BME280;49700;48.072;7.800;2023-06-26T04:01:36;99427.22;;;19.95;58.00
63556;BME280;49700;48.072;7.800;2023-06-26T04:04:04;99428.22;;;19.94;58.14
63556;BME280;49700;48.072;7.800;2023-06-26T04:06:31;99435.91;;;19.97;58.64
63556;BME280;49700;48.072;7.800;2023-06-26T04:08:59;99431.25;;;19.99;58.56
63556;BME280;49700;48.072;7.800;2023-06-26T04:11:26;99443.94;;;20.05;58.31
63556;BME280;49700;48.072;7.800;2023-06-26T04:13:51;99442.94;;;20.14;58.07
63556;BME280;49700;48.072;7.800;2023-06-26T04:16:17;99433.97;;;20.23;57.87
63556;BME280;49700;48.072;7.800;2023-06-26T04:18:42;99440.31;;;20.30;57.68
63556;BME280;49700;48.072;7.800;2023-06-26T04:21:12;99441.50;;;20.36;57.27
63556;BME280;49700;48.072;7.800;2023-06-26T04:23:38;99437.66;;;20.39;57.45
63556;BME280;49700;48.072;7.800;2023-06-26T04:26:05;99437.16;;;20.43;57.14
63556;BME280;49700;48.072;7.800;2023-06-26T04:28:35;99439.16;;;20.49;57.00
63556;BME280;49700;48.072;7.800;2023-06-26T04:31:01;99440.06;;;20.58;56.81
63556;BME280;49700;48.072;7.800;2023-06-26T04:33:27;99440.88;;;20.67;56.40
63556;BME280;49700;48.072;7.800;2023-06-26T04:35:53;99437.53;;;20.73;56.08
63556;BME280;49700;48.072;7.800;2023-06-26T04:38:19;99441.38;;;20.78;55.76
63556;BME280;49700;48.072;7.800;2023-06-26T04:40:45;99440.53;;;20.86;55.57
63556;BME280;49700;48.072;7.800;2023-06-26T04:43:10;99442.22;;;20.95;55.36
63556;BME280;49700;48.072;7.800;2023-06-26T04:45:36;99442.03;;;21.05;55.08
63556;BME280;49700;48.072;7.800;2023-06-26T04:48:02;99443.16;;;21.27;54.75
63556;BME280;49700;48.072;7.800;2023-06-26T04:50:27;99440.56;;;21.67;53.70
63556;BME280;49700;48.072;7.800;2023-06-26T04:52:54;99437.81;;;22.14;52.78
63556;BME280;49700;48.072;7.800;2023-06-26T04:55:20;99439.28;;;22.71;51.52
63556;BME280;49700;48.072;7.800;2023-06-26T04:57:47;99438.59;;;23.30;49.90
63556;BME280;49700;48.072;7.800;2023-06-26T05:00:13;99438.69;;;23.81;49.12
63556;BME280;49700;48.072;7.800;2023-06-26T05:02:39;99448.50;;;24.25;48.25
63556;BME280;49700;48.072;7.800;2023-06-26T05:05:04;99438.94;;;24.59;47.36
63556;BME280;49700;48.072;7.800;2023-06-26T05:07:30;99432.63;;;24.94;46.57
63556;BME280;49700;48.072;7.800;2023-06-26T05:09:55;99435.44;;;25.36;45.49
63556;BME280;49700;48.072;7.800;2023-06-26T05:12:21;99431.09;;;25.76;44.80
63556;BME280;49700;48.072;7.800;2023-06-26T05:14:46;99434.16;;;26.15;44.40
63556;BME280;49700;48.072;7.800;2023-06-26T05:17:13;99430.72;;;26.54;43.52
63556;BME280;49700;48.072;7.800;2023-06-26T05:19:39;99431.38;;;26.96;42.10
63556;BME280;49700;48.072;7.800;2023-06-26T05:22:05;99429.69;;;27.35;41.59
63556;BME280;49700;48.072;7.800;2023-06-26T05:24:37;99424.84;;;27.64;40.76
63556;BME280;49700;48.072;7.800;2023-06-26T05:27:03;99425.97;;;27.94;39.72
63556;BME280;49700;48.072;7.800;2023-06-26T05:29:30;99433.13;;;28.20;39.24
63556;BME280;49700;48.072;7.800;2023-06-26T05:31:56;99430.66;;;28.51;38.82
63556;BME280;49700;48.072;7.800;2023-06-26T05:34:25;99425.69;;;28.79;38.29
63556;BME280;49700;48.072;7.800;2023-06-26T05:36:56;99424.63;;;29.05;37.57
63556;BME280;49700;48.072;7.800;2023-06-26T05:39:22;99424.91;;;29.22;36.85
63556;BME280;49700;48.072;7.800;2023-06-26T05:41:48;99433.00;;;29.41;36.52
63556;BME280;49700;48.072;7.800;2023-06-26T05:44:14;99431.72;;;29.68;36.29
63556;BME280;49700;48.072;7.800;2023-06-26T05:46:39;99431.94;;;29.97;36.06
63556;BME280;49700;48.072;7.800;2023-06-26T05:49:05;99426.66;;;30.20;35.77
63556;BME280;49700;48.072;7.800;2023-06-26T05:51:30;99419.22;;;30.46;35.07
63556;BME280;49700;48.072;7.800;2023-06-26T05:53:56;99422.44;;;30.78;34.90
63556;BME280;49700;48.072;7.800;2023-06-26T05:56:22;99418.25;;;31.06;34.47
63556;BME280;49700;48.072;7.800;2023-06-26T05:58:47;99421.03;;;31.35;34.03
63556;BME280;49700;48.072;7.800;2023-06-26T06:01:13;99413.00;;;31.63;33.71
63556;BME280;49700;48.072;7.800;2023-06-26T06:03:39;99417.06;;;31.89;32.92
63556;BME280;49700;48.072;7.800;2023-06-26T06:06:05;99413.72;;;32.11;32.86
63556;BME280;49700;48.072;7.800;2023-06-26T06:08:30;99411.25;;;32.26;32.41
63556;BME280;49700;48.072;7.800;2023-06-26T06:10:55;99410.44;;;32.43;32.51
63556;BME280;49700;48.072;7.800;2023-06-26T06:13:21;99409.94;;;32.57;32.19
63556;BME280;49700;48.072;7.800;2023-06-26T06:15:46;99412.81;;;32.68;32.15
63556;BME280;49700;48.072;7.800;2023-06-26T06:18:12;99412.13;;;32.77;31.86
63556;BME280;49700;48.072;7.800;2023-06-26T06:20:37;99409.34;;;32.72;31.65
63556;BME280;49700;48.072;7.800;2023-06-26T06:23:02;99409.75;;;32.81;31.44
63556;BME280;49700;48.072;7.800;2023-06-26T06:25:28;99409.34;;;33.06;31.05
63556;BME280;49700;48.072;7.800;2023-06-26T06:27:53;99407.16;;;33.25;30.95
63556;BME280;49700;48.072;7.800;2023-06-26T06:30:19;99407.69;;;33.44;30.47
63556;BME280;49700;48.072;7.800;2023-06-26T06:32:44;99415.41;;;33.52;30.23
63556;BME280;49700;48.072;7.800;2023-06-26T06:35:10;99413.25;;;33.71;30.29
63556;BME280;49700;48.072;7.800;2023-06-26T06:37:38;99413.38;;;33.86;29.59
63556;BME280;49700;48.072;7.800;2023-06-26T06:40:09;99402.56;;;33.91;29.58
63556;BME280;49700;48.072;7.800;2023-06-26T06:42:34;99412.31;;;34.09;29.55
63556;BME280;49700;48.072;7.800;2023-06-26T06:45:04;99410.97;;;34.39;28.98
63556;BME280;49700;48.072;7.800;2023-06-26T06:47:30;99405.22;;;34.63;28.76
63556;BME280;49700;48.072;7.800;2023-06-26T06:49:55;99406.41;;;34.77;28.31
63556;BME280;49700;48.072;7.800;2023-06-26T06:52:21;99405.91;;;34.85;27.93
63556;BME280;49700;48.072;7.800;2023-06-26T06:54:54;99408.44;;;34.97;27.96
63556;BME280;49700;48.072;7.800;2023-06-26T06:57:21;99405.50;;;35.03;28.11
63556;BME280;49700;48.072;7.800;2023-06-26T07:03:12;99421.47;;;34.85;27.32
63556;BME280;49700;48.072;7.800;2023-06-26T07:05:37;99422.09;;;34.60;27.17
63556;BME280;49700;48.072;7.800;2023-06-26T07:08:03;99416.91;;;34.31;27.42
63556;BME280;49700;48.072;7.800;2023-06-26T07:10:29;99426.81;;;34.15;27.41
63556;BME280;49700;48.072;7.800;2023-06-26T07:12:55;99418.94;;;34.19;27.49
63556;BME280;49700;48.072;7.800;2023-06-26T07:15:21;99420.38;;;34.26;27.29
63556;BME280;49700;48.072;7.800;2023-06-26T07:17:46;99423.50;;;34.40;27.01
63556;BME280;49700;48.072;7.800;2023-06-26T07:20:12;99417.19;;;34.34;26.95
63556;BME280;49700;48.072;7.800;2023-06-26T07:22:41;99422.81;;;34.23;27.04
63556;BME280;49700;48.072;7.800;2023-06-26T07:25:07;99421.84;;;34.34;27.12
63556;BME280;49700;48.072;7.800;2023-06-26T07:27:39;99414.75;;;34.60;26.59
63556;BME280;49700;48.072;7.800;2023-06-26T07:30:05;99407.00;;;34.84;26.48
63556;BME280;49700;48.072;7.800;2023-06-26T07:32:30;99417.19;;;34.99;26.47
63556;BME280;49700;48.072;7.800;2023-06-26T07:34:55;99407.75;;;35.12;26.47
63556;BME280;49700;48.072;7.800;2023-06-26T07:37:21;99414.94;;;35.28;25.97
63556;BME280;49700;48.072;7.800;2023-06-26T07:39:47;99413.06;;;35.34;25.99
63556;BME280;49700;48.072;7.800;2023-06-26T07:42:12;99413.97;;;35.50;25.56
63556;BME280;49700;48.072;7.800;2023-06-26T07:44:38;99408.25;;;35.56;25.42
63556;BME280;49700;48.072;7.800;2023-06-26T07:47:03;99415.31;;;35.47;25.42
63556;BME280;49700;48.072;7.800;2023-06-26T07:49:29;99416.44;;;35.56;25.46
63556;BME280;49700;48.072;7.800;2023-06-26T07:51:54;99416.69;;;35.50;25.65
63556;BME280;49700;48.072;7.800;2023-06-26T07:54:20;99422.13;;;35.44;25.71
63556;BME280;49700;48.072;7.800;2023-06-26T07:57:12;99421.25;;;35.34;25.86
63556;BME280;49700;48.072;7.800;2023-06-26T07:59:38;99419.16;;;35.03;26.19
63556;BME280;49700;48.072;7.800;2023-06-26T08:02:03;99421.41;;;34.47;26.90
63556;BME280;49700;48.072;7.800;2023-06-26T08:04:30;99421.22;;;34.05;27.79
63556;BME280;49700;48.072;7.800;2023-06-26T08:06:58;99418.34;;;33.67;28.45
63556;BME280;49700;48.072;7.800;2023-06-26T08:09:28;99420.00;;;33.30;29.18
63556;BME280;49700;48.072;7.800;2023-06-26T08:11:54;99426.19;;;33.03;29.72
63556;BME280;49700;48.072;7.800;2023-06-26T08:14:20;99421.78;;;33.02;29.77
63556;BME280;49700;48.072;7.800;2023-06-26T08:16:46;99423.66;;;33.18;29.86
63556;BME280;49700;48.072;7.800;2023-06-26T08:19:15;99421.22;;;33.17;29.77
63556;BME280;49700;48.072;7.800;2023-06-26T08:21:42;99421.75;;;33.19;29.99
63556;BME280;49700;48.072;7.800;2023-06-26T08:24:09;99423.81;;;33.28;29.90
63556;BME280;49700;48.072;7.800;2023-06-26T08:26:35;99435.44;;;33.41;29.48
63556;BME280;49700;48.072;7.800;2023-06-26T08:29:00;99430.72;;;33.53;29.70
63556;BME280;49700;48.072;7.800;2023-06-26T08:31:26;99434.38;;;33.64;29.55
63556;BME280;49700;48.072;7.800;2023-06-26T08:33:51;99439.53;;;33.60;29.58
63556;BME280;49700;48.072;7.800;2023-06-26T08:36:17;99439.88;;;33.47;29.79
63556;BME280;49700;48.072;7.800;2023-06-26T08:38:43;99445.53;;;33.45;29.95
63556;BME280;49700;48.072;7.800;2023-06-26T08:41:08;99443.09;;;33.44;29.99
63556;BME280;49700;48.072;7.800;2023-06-26T08:43:35;99444.66;;;33.40;30.25
63556;BME280;49700;48.072;7.800;2023-06-26T08:46:01;99451.03;;;33.28;30.05
63556;BME280;49700;48.072;7.800;2023-06-26T08:48:29;99448.09;;;33.13;30.49
63556;BME280;49700;48.072;7.800;2023-06-26T08:50:57;99455.69;;;33.11;30.62
63556;BME280;49700;48.072;7.800;2023-06-26T08:53:56;99448.66;;;33.15;30.62
63556;BME280;49700;48.072;7.800;2023-06-26T08:56:22;99447.19;;;33.08;31.00
63556;BME280;49700;48.072;7.800;2023-06-26T08:58:48;99455.91;;;32.93;31.28
63556;BME280;49700;48.072;7.800;2023-06-26T09:01:14;99460.78;;;32.91;31.18
63556;BME280;49700;48.072;7.800;2023-06-26T09:03:40;99459.97;;;33.07;31.06
63556;BME280;49700;48.072;7.800;2023-06-26T09:06:07;99458.13;;;33.30;30.64
63556;BME280;49700;48.072;7.800;2023-06-26T09:08:32;99458.59;;;33.60;30.57
63556;BME280;49700;48.072;7.800;2023-06-26T09:10:58;99465.13;;;33.81;30.17
63556;BME280;49700;48.072;7.800;2023-06-26T09:13:23;99463.28;;;33.87;30.25
63556;BME280;49700;48.072;7.800;2023-06-26T09:15:49;99465.13;;;33.81;30.29
63556;BME280;49700;48.072;7.800;2023-06-26T09:18:18;99467.13;;;33.69;30.60
63556;BME280;49700;48.072;7.800;2023-06-26T09:20:44;99474.34;;;33.58;30.67
63556;BME280;49700;48.072;7.800;2023-06-26T09:23:10;99473.78;;;33.56;30.63
63556;BME280;49700;48.072;7.800;2023-06-26T09:25:37;99470.16;;;33.72;30.65
63556;BME280;49700;48.072;7.800;2023-06-26T09:28:03;99474.09;;;34.04;30.34
63556;BME280;49700;48.072;7.800;2023-06-26T09:30:32;99469.00;;;34.34;29.76
63556;BME280;49700;48.072;7.800;2023-06-26T09:32:57;99476.31;;;34.56;29.28
63556;BME280;49700;48.072;7.800;2023-06-26T09:35:23;99478.63;;;34.69;29.08
63556;BME280;49700;48.072;7.800;2023-06-26T09:37:50;99480.84;;;34.72;28.71
63556;BME280;49700;48.072;7.800;2023-06-26T09:40:15;99479.84;;;34.84;28.71
63556;BME280;49700;48.072;7.800;2023-06-26T09:42:41;99481.31;;;34.96;28.39
63556;BME280;49700;48.072;7.800;2023-06-26T09:45:07;99481.81;;;34.88;28.58
63556;BME280;49700;48.072;7.800;2023-06-26T09:47:34;99481.19;;;34.54;28.89
63556;BME280;49700;48.072;7.800;2023-06-26T09:50:02;99486.69;;;34.32;29.30
63556;BME280;49700;48.072;7.800;2023-06-26T09:52:28;99482.97;;;34.16;29.30
63556;BME280;49700;48.072;7.800;2023-06-26T09:55:09;99495.19;;;34.08;29.43
63556;BME280;49700;48.072;7.800;2023-06-26T09:57:35;99499.38;;;33.99;29.87
63556;BME280;49700;48.072;7.800;2023-06-26T10:00:04;99505.72;;;33.83;30.20
63556;BME280;49700;48.072;7.800;2023-06-26T10:02:37;99503.22;;;33.59;30.65
63556;BME280;49700;48.072;7.800;2023-06-26T10:05:03;99511.50;;;33.31;31.13
63556;BME280;49700;48.072;7.800;2023-06-26T10:07:29;99513.34;;;33.08;31.43
63556;BME280;49700;48.072;7.800;2023-06-26T10:09:55;99503.09;;;32.81;31.88
63556;BME280;49700;48.072;7.800;2023-06-26T10:12:29;99509.56;;;32.64;32.19
63556;BME280;49700;48.072;7.800;2023-06-26T10:14:58;99512.44;;;32.57;32.08
63556;BME280;49700;48.072;7.800;2023-06-26T10:17:28;99507.22;;;32.55;32.09
63556;BME280;49700;48.072;7.800;2023-06-26T10:19:58;99511.84;;;32.55;32.43
63556;BME280;49700;48.072;7.800;2023-06-26T10:22:27;99508.75;;;32.63;32.08
63556;BME280;49700;48.072;7.800;2023-06-26T10:24:58;99502.31;;;32.86;32.12
63556;BME280;49700;48.072;7.800;2023-06-26T10:27:27;99514.69;;;32.94;31.93
63556;BME280;49700;48.072;7.800;2023-06-26T10:29:58;99516.53;;;33.05;32.19
63556;BME280;49700;48.072;7.800;2023-06-26T10:32:26;99510.22;;;33.16;31.86
63556;BME280;49700;48.072;7.800;2023-06-26T10:34:52;99512.94;;;33.16;31.50
63556;BME280;49700;48.072;7.800;2023-06-26T10:37:19;99523.16;;;33.09;31.81
63556;BME280;49700;48.072;7.800;2023-06-26T10:39:49;99517.72;;;33.09;31.83
63556;BME280;49700;48.072;7.800;2023-06-26T10:42:16;99510.69;;;33.13;31.78
63556;BME280;49700;48.072;7.800;2023-06-26T10:44:46;99512.09;;;33.16;31.91
63556;BME280;49700;48.072;7.800;2023-06-26T10:47:31;99511.34;;;33.20;31.57
63556;BME280;49700;48.072;7.800;2023-06-26T10:50:16;99516.38;;;33.12;31.42
63556;BME280;49700;48.072;7.800;2023-06-26T10:52:43;99524.69;;;33.05;31.72
63556;BME280;49700;48.072;7.800;2023-06-26T10:55:08;99515.69;;;32.88;31.91
63556;BME280;49700;48.072;7.800;2023-06-26T10:57:36;99513.47;;;32.84;32.19
63556;BME280;49700;48.072;7.800;2023-06-26T11:00:09;99508.13;;;32.90;31.76
63556;BME280;49700;48.072;7.800;2023-06-26T11:02:50;99512.66;;;32.84;31.48
63556;BME280;49700;48.072;7.800;2023-06-26T11:05:29;99507.94;;;32.79;32.03
63556;BME280;49700;48.072;7.800;2023-06-26T11:08:09;99502.69;;;32.90;31.77
63556;BME280;49700;48.072;7.800;2023-06-26T11:11:00;99503.00;;;33.10;31.27
63556;BME280;49700;48.072;7.800;2023-06-26T11:13:26;99506.56;;;33.27;31.20
63556;BME280;49700;48.072;7.800;2023-06-26T11:15:52;99495.06;;;33.42;31.00
63556;BME280;49700;48.072;7.800;2023-06-26T11:18:20;99500.50;;;33.59;30.46
63556;BME280;49700;48.072;7.800;2023-06-26T11:20:45;99502.56;;;33.69;30.46
63556;BME280;49700;48.072;7.800;2023-06-26T11:25:46;99503.59;;;33.46;30.48
63556;BME280;49700;48.072;7.800;2023-06-26T11:28:12;99505.47;;;33.28;30.41
63556;BME280;49700;48.072;7.800;2023-06-26T11:30:37;99518.53;;;33.10;30.95
63556;BME280;49700;48.072;7.800;2023-06-26T11:33:09;99508.59;;;32.87;31.50
63556;BME280;49700;48.072;7.800;2023-06-26T11:35:35;99513.34;;;32.63;31.57
63556;BME280;49700;48.072;7.800;2023-06-26T11:38:01;99528.66;;;32.52;31.80
63556;BME280;49700;48.072;7.800;2023-06-26T11:40:32;99512.84;;;32.49;32.10
63556;BME280;49700;48.072;7.800;2023-06-26T11:42:59;99513.69;;;32.66;32.41
63556;BME280;49700;48.072;7.800;2023-06-26T11:45:27;99529.94;;;32.78;32.05
63556;BME280;49700;48.072;7.800;2023-06-26T11:47:55;99524.25;;;32.79;32.52
63556;BME280;49700;48.072;7.800;2023-06-26T11:50:22;99520.84;;;32.72;32.14
63556;BME280;49700;48.072;7.800;2023-06-26T11:52:58;99524.38;;;32.73;32.68
63556;BME280;49700;48.072;7.800;2023-06-26T11:55:25;99530.50;;;32.80;32.37
63556;BME280;49700;48.072;7.800;2023-06-26T11:57:54;99520.22;;;32.82;31.74
63556;BME280;49700;48.072;7.800;2023-06-26T12:00:20;99529.19;;;32.82;31.59
63556;BME280;49700;48.072;7.800;2023-06-26T12:02:46;99522.84;;;32.77;31.74
63556;BME280;49700;48.072;7.800;2023-06-26T12:05:13;99526.16;;;32.79;32.01
63556;BME280;49700;48.072;7.800;2023-06-26T12:07:40;99520.81;;;32.84;31.47
63556;BME280;49700;48.072;7.800;2023-06-26T12:10:07;99498.78;;;32.86;31.09
63556;BME280;49700;48.072;7.800;2023-06-26T12:12:33;99493.94;;;32.88;31.36
63556;BME280;49700;48.072;7.800;2023-06-26T12:14:58;99499.19;;;32.94;31.21
63556;BME280;49700;48.072;7.800;2023-06-26T12:17:25;99503.69;;;33.00;31.11
63556;BME280;49700;48.072;7.800;2023-06-26T12:19:50;99505.09;;;33.03;30.92
63556;BME280;49700;48.072;7.800;2023-06-26T12:22:17;99497.03;;;33.08;30.70
63556;BME280;49700;48.072;7.800;2023-06-26T12:24:43;99499.75;;;33.08;30.40
63556;BME280;49700;48.072;7.800;2023-06-26T12:27:11;99501.38;;;33.09;30.59
63556;BME280;49700;48.072;7.800;2023-06-26T12:29:37;99508.13;;;33.07;30.40
63556;BME280;49700;48.072;7.800;2023-06-26T12:32:03;99504.97;;;32.98;29.88
63556;BME280;49700;48.072;7.800;2023-06-26T12:34:32;99511.88;;;33.00;30.14
63556;BME280;49700;48.072;7.800;2023-06-26T12:37:11;99512.66;;;33.18;29.93
63556;BME280;49700;48.072;7.800;2023-06-26T12:39:47;99513.06;;;33.26;29.58
63556;BME280;49700;48.072;7.800;2023-06-26T12:42:14;99510.13;;;33.28;29.65
63556;BME280;49700;48.072;7.800;2023-06-26T12:44:40;99513.91;;;33.27;29.41
63556;BME280;49700;48.072;7.800;2023-06-26T12:47:05;99513.25;;;33.20;29.59
63556;BME280;49700;48.072;7.800;2023-06-26T12:49:42;99508.97;;;33.07;29.41
63556;BME280;49700;48.072;7.800;2023-06-26T12:52:10;99513.34;;;33.08;29.41
63556;BME280;49700;48.072;7.800;2023-06-26T12:54:37;99501.69;;;33.13;29.08
63556;BME280;49700;48.072;7.800;2023-06-26T12:57:03;99501.03;;;33.22;29.02
63556;BME280;49700;48.072;7.800;2023-06-26T12:59:32;99496.91;;;33.37;28.78
63556;BME280;49700;48.072;7.800;2023-06-26T13:01:59;99495.88;;;33.43;28.67
63556;BME280;49700;48.072;7.800;2023-06-26T13:04:25;99497.22;;;33.40;28.35
63556;BME280;49700;48.072;7.800;2023-06-26T13:06:50;99491.59;;;33.47;28.31
63556;BME280;49700;48.072;7.800;2023-06-26T13:09:17;99493.59;;;33.52;28.33
63556;BME280;49700;48.072;7.800;2023-06-26T13:11:45;99497.84;;;33.64;27.95
63556;BME280;49700;48.072;7.800;2023-06-26T13:14:11;99492.25;;;33.71;28.04